Time;durP1;ratioP1;P1;durP2;ratioP2;P2;SDS_P1;SDS_P2;PMS_P1;PMS_P2;Temp;Humidity;BMP_temperature;BMP_pressure;BME280_temperature;BME280_humidity;BME280_pressure;Samples;Min_cycle;Max_cycle;Signal;HPM_P1;HPM_P2
2023/04/27 04:31:08;;;;;;;8.40;2.25;;;11.80;83.20;;;;;;5512200;23;20063;-78
2023/04/27 04:33:34;;;;;;;9.15;2.17;;;11.80;83.00;;;;;;4880059;29;20044;-78
2023/04/27 04:36:03;;;;;;;10.75;2.72;;;11.70;82.50;;;;;;4866275;29;20034;-78
2023/04/27 04:38:28;;;;;;;12.77;2.60;;;11.70;82.60;;;;;;4863090;29;20493;-78
2023/04/27 04:40:54;;;;;;;15.98;3.00;;;11.60;82.10;;;;;;4863229;29;20172;-78
2023/04/27 04:43:20;;;;;;;10.55;2.88;;;11.50;82.30;;;;;;4863330;29;20084;-78
2023/04/27 04:45:46;;;;;;;10.25;2.63;;;11.40;82.70;;;;;;4863471;29;20029;-78
2023/04/27 04:48:14;;;;;;;5.93;2.80;;;11.50;83.00;;;;;;4863167;29;20029;-78
2023/04/27 04:50:40;;;;;;;12.48;2.90;;;11.50;82.40;;;;;;4871510;29;20033;-77
2023/04/27 04:53:06;;;;;;;4.75;2.65;;;11.50;82.50;;;;;;4880918;29;20093;-78
2023/04/27 04:55:32;;;;;;;9.05;2.63;;;11.40;82.50;;;;;;4881544;29;20036;-77
2023/04/27 04:57:57;;;;;;;8.13;2.72;;;11.30;82.40;;;;;;4881561;29;20148;-79
2023/04/27 05:00:23;;;;;;;6.50;3.13;;;11.40;82.50;;;;;;4880051;29;20433;-80
2023/04/27 05:02:49;;;;;;;8.27;2.80;;;11.50;82.30;;;;;;4872527;29;20025;-79
2023/04/27 05:05:14;;;;;;;17.05;3.47;;;11.50;82.10;;;;;;4878982;29;20045;-80
2023/04/27 05:07:40;;;;;;;10.68;3.05;;;11.40;81.80;;;;;;4868108;29;20024;-83
2023/04/27 05:10:06;;;;;;;7.07;2.35;;;11.30;81.80;;;;;;4873759;29;20567;-85
2023/04/27 05:12:32;;;;;;;8.30;2.60;;;11.30;82.20;;;;;;4881458;29;20036;-81
2023/04/27 05:14:57;;;;;;;5.22;2.15;;;11.40;81.90;;;;;;4864475;29;20044;-80
2023/04/27 05:17:23;;;;;;;6.53;2.67;;;11.40;82.10;;;;;;4864770;29;20037;-80
2023/04/27 05:19:49;;;;;;;5.82;2.25;;;11.50;81.80;;;;;;4881651;29;20116;-81
2023/04/27 05:22:14;;;;;;;5.32;2.45;;;11.40;81.30;;;;;;4881628;29;20062;-81
2023/04/27 05:24:40;;;;;;;10.27;3.35;;;11.30;81.80;;;;;;4861226;29;20400;-81
2023/04/27 05:27:06;;;;;;;3.95;2.88;;;11.30;81.90;;;;;;4863128;29;20053;-81
2023/04/27 05:29:32;;;;;;;6.63;2.95;;;11.30;82.00;;;;;;4863523;29;20037;-81
2023/04/27 05:31:57;;;;;;;4.40;2.88;;;11.40;81.70;;;;;;4871919;29;20424;-82
2023/04/27 05:34:23;;;;;;;5.18;2.63;;;11.50;81.90;;;;;;4883960;29;20447;-82
2023/04/27 05:36:48;;;;;;;10.50;2.42;;;11.50;81.80;;;;;;4900130;29;20040;-81
2023/04/27 05:39:14;;;;;;;12.65;2.42;;;11.50;81.30;;;;;;4895391;29;20033;-81
2023/04/27 05:41:40;;;;;;;4.18;2.05;;;11.50;81.30;;;;;;4899856;29;20024;-83
2023/04/27 05:44:05;;;;;;;12.38;3.00;;;11.50;81.20;;;;;;4897901;29;20031;-84
2023/04/27 05:46:32;;;;;;;9.05;2.10;;;11.50;81.30;;;;;;4894704;29;20112;-82
2023/04/27 05:48:58;;;;;;;3.72;2.47;;;11.40;81.50;;;;;;4896406;29;20072;-80
2023/04/27 05:51:23;;;;;;;7.00;2.53;;;11.40;81.40;;;;;;4887610;29;20036;-81
2023/04/27 05:53:49;;;;;;;10.00;2.25;;;11.40;81.80;;;;;;4894499;29;20047;-81
2023/04/27 05:56:15;;;;;;;10.27;2.50;;;11.50;81.30;;;;;;4877762;29;20124;-80
2023/04/27 05:58:41;;;;;;;9.43;2.22;;;11.50;81.20;;;;;;4878374;29;20025;-81
2023/04/27 06:01:07;;;;;;;14.18;2.50;;;11.50;81.50;;;;;;4879366;29;20025;-81
2023/04/27 06:03:32;;;;;;;4.85;2.40;;;11.50;81.50;;;;;;4886821;29;20044;-81
2023/04/27 06:05:59;;;;;;;3.30;2.03;;;11.50;81.60;;;;;;4898430;29;20024;-81
2023/04/27 06:08:26;;;;;;;10.32;2.45;;;11.50;81.50;;;;;;4896755;29;20048;-81
2023/04/27 06:10:52;;;;;;;11.68;2.13;;;11.60;81.50;;;;;;4891752;29;20033;-81
2023/04/27 06:13:18;;;;;;;21.63;3.00;;;11.60;81.00;;;;;;4904892;29;20043;-81
2023/04/27 06:15:45;;;;;;;6.40;2.35;;;11.70;81.50;;;;;;4902788;29;20033;-81
2023/04/27 06:18:10;;;;;;;4.85;2.15;;;11.80;81.10;;;;;;4903078;29;20104;-81
2023/04/27 06:20:36;;;;;;;4.75;2.55;;;11.80;81.30;;;;;;4902586;29;20057;-81
2023/04/27 06:23:02;;;;;;;3.47;2.42;;;11.90;81.50;;;;;;4917585;29;20028;-81
2023/04/27 06:25:27;;;;;;;4.07;2.65;;;12.00;81.30;;;;;;4901648;29;20031;-81
2023/04/27 06:27:57;;;;;;;3.25;2.22;;;12.10;81.20;;;;;;4899648;29;20033;-81
2023/04/27 06:30:25;;;;;;;11.10;2.20;;;12.30;81.00;;;;;;4880841;29;20512;-80
2023/04/27 06:32:51;;;;;;;9.35;2.60;;;12.20;80.20;;;;;;4852939;29;20029;-81
2023/04/27 06:35:17;;;;;;;5.85;2.75;;;12.20;80.70;;;;;;4883972;29;20508;-81
2023/04/27 06:37:43;;;;;;;7.15;2.55;;;12.10;80.60;;;;;;4884107;29;20044;-81
2023/04/27 06:40:09;;;;;;;6.55;2.80;;;12.20;80.90;;;;;;4883589;29;20033;-81
2023/04/27 06:42:35;;;;;;;3.40;2.17;;;12.20;80.90;;;;;;4867256;29;20037;-81
2023/04/27 06:45:01;;;;;;;6.22;2.90;;;12.30;81.10;;;;;;4867443;29;20573;-81
2023/04/27 06:47:27;;;;;;;6.70;3.25;;;12.30;81.40;;;;;;4883864;29;20025;-81
2023/04/27 06:49:52;;;;;;;4.75;2.60;;;12.50;81.00;;;;;;4873875;29;20048;-81
2023/04/27 06:52:18;;;;;;;5.72;3.05;;;12.70;80.90;;;;;;4851934;29;20485;-81
2023/04/27 06:54:44;;;;;;;6.65;2.83;;;12.80;80.40;;;;;;4871123;29;20249;-81
2023/04/27 06:57:10;;;;;;;5.80;3.10;;;12.80;80.10;;;;;;4848473;29;20572;-81
2023/04/27 06:59:35;;;;;;;5.60;3.15;;;12.80;80.60;;;;;;4857160;29;20438;-81
2023/04/27 07:02:01;;;;;;;7.82;3.67;;;12.80;80.70;;;;;;4859084;29;20064;-81
2023/04/27 07:04:26;;;;;;;6.22;3.08;;;12.90;80.60;;;;;;4867338;29;20396;-81
2023/04/27 07:06:52;;;;;;;7.30;3.58;;;13.00;80.60;;;;;;4883638;29;20029;-81
2023/04/27 07:09:18;;;;;;;5.68;3.08;;;13.00;80.20;;;;;;4883693;29;20030;-81
2023/04/27 07:11:43;;;;;;;7.78;3.67;;;12.90;80.50;;;;;;4863844;29;20044;-81
2023/04/27 07:14:09;;;;;;;7.70;3.40;;;12.90;80.50;;;;;;4866956;29;20041;-81
2023/04/27 07:16:35;;;;;;;6.63;3.80;;;12.90;80.60;;;;;;4882930;29;20036;-81
2023/04/27 07:19:01;;;;;;;5.75;3.15;;;12.90;80.50;;;;;;4866289;29;20029;-81
2023/04/27 07:21:27;;;;;;;6.82;3.47;;;12.90;80.80;;;;;;4862743;29;20040;-81
2023/04/27 07:23:53;;;;;;;10.32;3.83;;;12.90;80.80;;;;;;4864714;29;20026;-81
2023/04/27 07:26:18;;;;;;;7.90;3.72;;;12.90;80.90;;;;;;4857059;29;20493;-82
2023/04/27 07:28:46;;;;;;;6.40;4.07;;;12.90;81.10;;;;;;4848188;29;20097;-81
2023/04/27 07:31:13;;;;;;;6.82;4.45;;;13.00;80.90;;;;;;4861468;29;20580;-81
2023/04/27 07:33:38;;;;;;;7.40;4.13;;;13.10;81.00;;;;;;4892920;29;20025;-81
2023/04/27 07:36:04;;;;;;;8.25;4.22;;;13.10;80.80;;;;;;4897156;29;20107;-81
2023/04/27 07:38:30;;;;;;;6.80;4.00;;;13.20;81.10;;;;;;4897204;29;20497;-81
2023/04/27 07:41:00;;;;;;;7.63;4.03;;;13.10;81.00;;;;;;4891522;29;20061;-82
2023/04/27 07:43:26;;;;;;;8.80;4.10;;;13.00;81.40;;;;;;4901762;29;20111;-81
2023/04/27 07:45:53;;;;;;;5.65;3.25;;;13.00;81.30;;;;;;4910359;29;20072;-82
2023/04/27 07:48:19;;;;;;;12.85;5.55;;;13.10;81.20;;;;;;4920505;29;20024;-81
2023/04/27 07:50:44;;;;;;;11.77;6.20;;;13.20;81.20;;;;;;4901288;29;20551;-81
2023/04/27 07:53:10;;;;;;;8.07;4.80;;;13.30;81.30;;;;;;4901531;29;20044;-81
2023/04/27 07:55:36;;;;;;;9.27;4.97;;;13.30;81.40;;;;;;4901443;29;20084;-81
2023/04/27 07:58:04;;;;;;;8.80;5.78;;;13.40;81.50;;;;;;4900989;29;20024;-81
2023/04/27 08:00:29;;;;;;;7.88;5.60;;;13.30;81.40;;;;;;4901250;29;20032;-81
2023/04/27 08:02:55;;;;;;;8.55;4.65;;;13.30;81.40;;;;;;4903778;29;20028;-81
2023/04/27 08:05:21;;;;;;;9.38;4.22;;;13.20;81.40;;;;;;4897734;29;20033;-81
2023/04/27 08:07:47;;;;;;;8.20;3.88;;;13.30;82.00;;;;;;4899812;29;20048;-81
2023/04/27 08:10:15;;;;;;;6.15;4.20;;;13.40;81.60;;;;;;4897941;29;20032;-81
2023/04/27 08:12:41;;;;;;;9.80;6.28;;;13.50;81.50;;;;;;4880939;29;20073;-81
2023/04/27 08:15:07;;;;;;;7.63;4.32;;;13.50;81.20;;;;;;4899230;29;20092;-81
2023/04/27 08:17:33;;;;;;;8.80;6.03;;;13.50;81.60;;;;;;4900958;29;20029;-81
2023/04/27 08:19:59;;;;;;;9.10;5.47;;;13.40;81.70;;;;;;4900933;29;20024;-81
2023/04/27 08:22:25;;;;;;;7.78;4.18;;;13.50;82.10;;;;;;4900582;29;20456;-81
2023/04/27 08:24:50;;;;;;;5.95;4.05;;;13.50;81.80;;;;;;4915316;29;20067;-81
2023/04/27 08:27:16;;;;;;;6.30;4.13;;;13.50;81.40;;;;;;4894425;29;20036;-81
2023/04/27 08:29:48;;;;;;;7.25;4.30;;;13.50;81.90;;;;;;4882081;29;20035;-81
2023/04/27 08:32:14;;;;;;;9.55;4.82;;;13.40;82.10;;;;;;4865691;29;20057;-80
2023/04/27 08:34:40;;;;;;;8.50;4.15;;;13.40;82.30;;;;;;4864600;29;20029;-82
2023/04/27 08:37:07;;;;;;;7.90;4.68;;;13.50;82.00;;;;;;4881629;29;20036;-82
2023/04/27 08:39:33;;;;;;;6.97;3.85;;;13.60;81.80;;;;;;4882052;29;20021;-82
2023/04/27 08:41:58;;;;;;;8.70;4.22;;;13.70;81.80;;;;;;4881723;29;20488;-81
2023/04/27 08:44:24;;;;;;;8.27;4.35;;;13.60;81.70;;;;;;4865370;29;20032;-81
2023/04/27 08:46:50;;;;;;;6.43;3.85;;;13.60;81.40;;;;;;4865263;29;20052;-82
2023/04/27 08:49:16;;;;;;;5.90;3.80;;;13.60;82.00;;;;;;4861182;29;20124;-81
2023/04/27 08:51:42;;;;;;;9.32;4.18;;;13.70;82.00;;;;;;4863376;29;20034;-81
2023/04/27 08:54:08;;;;;;;7.63;4.10;;;13.70;82.00;;;;;;4865409;29;20033;-81
2023/04/27 08:56:33;;;;;;;7.28;3.58;;;13.70;81.90;;;;;;4881868;29;20501;-81
2023/04/27 08:59:02;;;;;;;6.22;3.88;;;13.70;82.10;;;;;;4880780;29;20033;-81
2023/04/27 09:01:28;;;;;;;5.13;3.40;;;13.70;82.10;;;;;;4881678;29;20461;-82
2023/04/27 09:04:00;;;;;;;5.95;3.97;;;13.80;82.50;;;;;;4881553;29;20085;-81
2023/04/27 09:06:34;;;;;;;7.50;4.38;;;13.80;82.30;;;;;;4881136;29;20481;-82
2023/04/27 09:09:01;;;;;;;6.10;4.20;;;13.90;82.40;;;;;;4881870;29;20033;-81
2023/04/27 09:11:31;;;;;;;6.78;4.43;;;14.00;82.10;;;;;;4864854;29;20391;-80
2023/04/27 09:13:58;;;;;;;9.38;4.20;;;14.10;81.70;;;;;;4881299;29;20396;-81
2023/04/27 09:16:25;;;;;;;8.73;4.63;;;14.20;81.60;;;;;;4881526;29;20097;-81
2023/04/27 09:18:51;;;;;;;8.35;4.68;;;14.20;81.60;;;;;;4865433;29;20037;-81
2023/04/27 09:21:29;;;;;;;7.30;5.03;;;14.20;81.40;;;;;;4863269;29;20445;-81
2023/04/27 09:23:56;;;;;;;8.55;4.18;;;14.20;81.60;;;;;;4846760;29;20028;-81
2023/04/27 09:26:26;;;;;;;6.70;4.05;;;14.10;81.60;;;;;;4863717;29;20034;-81
2023/04/27 09:28:53;;;;;;;;;;;14.10;82.20;;;;;;4857290;29;20036;-81
2023/04/27 09:31:19;;;;;;;6.60;3.97;;;14.20;82.30;;;;;;4877705;29;19964;-80
2023/04/27 09:33:53;;;;;;;7.75;4.60;;;14.10;82.40;;;;;;4873434;29;20029;-80
2023/04/27 09:36:19;;;;;;;6.93;4.03;;;14.00;83.60;;;;;;4881414;29;20568;-81
2023/04/27 09:38:46;;;;;;;14.25;7.50;;;14.00;84.30;;;;;;4881021;29;20044;-81
2023/04/27 09:41:12;;;;;;;8.73;6.15;;;14.10;84.00;;;;;;4900424;29;20048;-81
2023/04/27 09:43:38;;;;;;;17.70;9.90;;;14.10;84.80;;;;;;4902748;29;20115;-82
2023/04/27 09:46:04;;;;;;;16.20;10.82;;;14.20;84.20;;;;;;4875760;29;20029;-81
2023/04/27 09:48:30;;;;;;;17.23;10.70;;;14.20;84.60;;;;;;4866685;29;20029;-81
2023/04/27 09:50:56;;;;;;;12.63;8.30;;;14.20;84.40;;;;;;4865240;29;20042;-81
2023/04/27 09:53:28;;;;;;;11.25;7.30;;;14.20;84.60;;;;;;4881325;29;20048;-81
2023/04/27 09:56:19;;;;;;;12.38;6.90;;;14.20;84.40;;;;;;4855152;29;20478;-81
2023/04/27 09:59:05;;;;;;;14.93;6.68;;;14.20;84.40;;;;;;4866573;29;20033;-81
2023/04/27 10:01:48;;;;;;;10.18;5.70;;;14.30;84.40;;;;;;4866408;29;20120;-81
2023/04/27 10:04:33;;;;;;;14.55;6.88;;;14.30;84.80;;;;;;4866756;29;20153;-81
2023/04/27 10:07:02;;;;;;;10.35;5.55;;;14.30;84.80;;;;;;4886972;29;20025;-81
2023/04/27 10:09:39;;;;;;;9.90;5.68;;;14.30;85.10;;;;;;4884093;29;20033;-81
2023/04/27 10:12:20;;;;;;;11.48;6.65;;;14.30;85.00;;;;;;4884759;29;20033;-82
2023/04/27 10:14:51;;;;;;;10.57;6.00;;;14.40;85.00;;;;;;4867064;29;20037;-81
2023/04/27 10:17:17;;;;;;;12.70;5.93;;;14.50;84.70;;;;;;4875768;29;20033;-81
2023/04/27 10:20:00;;;;;;;13.13;6.18;;;14.40;84.70;;;;;;4863141;29;20057;-81
2023/04/27 10:22:44;;;;;;;12.10;6.13;;;14.50;84.60;;;;;;4865716;29;20034;-81
2023/04/27 10:25:20;;;;;;;9.10;4.90;;;14.50;84.80;;;;;;4865815;29;20584;-81
2023/04/27 10:27:51;;;;;;;10.73;5.53;;;14.50;84.80;;;;;;4869697;29;20124;-82
2023/04/27 10:30:17;;;;;;;;;;;14.50;85.00;;;;;;4884535;29;20029;-82
2023/04/27 10:32:51;;;;;;;10.85;4.90;;;14.60;84.90;;;;;;4867006;29;19916;-81
2023/04/27 10:35:17;;;;;;;9.45;5.15;;;14.60;84.70;;;;;;4884031;29;20028;-81
2023/04/27 10:37:46;;;;;;;7.45;4.75;;;14.60;85.40;;;;;;4883676;29;20044;-84
2023/04/27 10:40:16;;;;;;;7.22;4.07;;;14.70;85.60;;;;;;4869072;29;20052;-84
2023/04/27 10:42:48;;;;;;;6.97;4.55;;;14.80;85.40;;;;;;4866862;29;20036;-80
2023/04/27 10:45:24;;;;;;;6.70;3.92;;;14.70;85.30;;;;;;4884066;29;20035;-80
2023/04/27 10:47:57;;;;;;;11.02;6.18;;;14.70;85.40;;;;;;4884282;29;20485;-80
2023/04/27 10:50:24;;;;;;;10.82;5.60;;;14.70;85.70;;;;;;4866731;29;20192;-80
2023/04/27 10:52:50;;;;;;;6.55;3.80;;;14.70;86.10;;;;;;4867207;29;20029;-80
2023/04/27 10:55:20;;;;;;;9.00;4.45;;;14.80;86.00;;;;;;4883434;29;20044;-82
2023/04/27 10:57:52;;;;;;;4.95;3.33;;;14.80;85.80;;;;;;4866575;29;20041;-77
2023/04/27 11:00:28;;;;;;;8.77;4.53;;;14.80;85.70;;;;;;4867249;29;20025;-77
2023/04/27 11:02:56;;;;;;;12.75;5.07;;;14.90;85.90;;;;;;4866837;29;20036;-80
2023/04/27 11:05:31;;;;;;;11.90;4.13;;;14.80;85.70;;;;;;4883863;29;20040;-79
2023/04/27 11:08:11;;;;;;;10.32;5.53;;;14.90;86.00;;;;;;4866807;29;20033;-78
2023/04/27 11:10:49;;;;;;;5.50;3.53;;;15.00;85.70;;;;;;4882956;29;20037;-76
2023/04/27 11:13:17;;;;;;;9.13;4.43;;;15.20;85.90;;;;;;4866956;29;20035;-82
2023/04/27 11:15:51;;;;;;;5.90;3.50;;;15.00;85.70;;;;;;4883446;29;20504;-76
2023/04/27 11:18:18;;;;;;;9.95;4.00;;;15.10;85.90;;;;;;4882756;29;20073;-77
2023/04/27 11:20:51;;;;;;;5.93;3.25;;;15.30;85.80;;;;;;4883701;29;20070;-77
2023/04/27 11:23:40;;;;;;;7.20;3.65;;;15.40;85.40;;;;;;4866599;29;20077;-77
2023/04/27 11:26:14;;;;;;;5.22;3.63;;;15.40;85.60;;;;;;4883075;29;20503;-76
2023/04/27 11:28:41;;;;;;;7.28;3.90;;;15.40;85.30;;;;;;4883264;29;20033;-75
2023/04/27 11:31:06;;;;;;;6.03;3.83;;;15.40;85.30;;;;;;4882703;29;20067;-75
2023/04/27 11:33:32;;;;;;;5.20;3.50;;;15.50;85.40;;;;;;4882959;29;20504;-75
2023/04/27 11:35:58;;;;;;;6.60;3.22;;;15.50;85.30;;;;;;4882878;29;20073;-76
2023/04/27 11:38:26;;;;;;;5.55;3.30;;;15.50;85.10;;;;;;4865671;29;20040;-75
2023/04/27 11:41:05;;;;;;;6.50;3.65;;;15.50;85.50;;;;;;4882419;29;20033;-76
2023/04/27 11:43:31;;;;;;;5.97;3.17;;;15.50;85.70;;;;;;4868606;29;20368;-76
2023/04/27 11:45:57;;;;;;;7.30;3.95;;;15.50;85.60;;;;;;4899908;29;20095;-75
2023/04/27 11:48:24;;;;;;;7.20;3.53;;;15.40;85.70;;;;;;4901417;29;20060;-76
2023/04/27 11:50:52;;;;;;;6.80;4.03;;;15.40;85.90;;;;;;4877568;29;20475;-77
2023/04/27 11:53:31;;;;;;;5.85;3.88;;;15.40;86.10;;;;;;4864183;29;20405;-76
2023/04/27 11:56:00;;;;;;;6.47;3.40;;;15.40;86.00;;;;;;4847682;29;20090;-76
2023/04/27 11:58:28;;;;;;;4.72;3.17;;;15.40;86.00;;;;;;4863969;29;20290;-78
2023/04/27 12:00:56;;;;;;;4.85;3.45;;;15.40;85.90;;;;;;4857190;29;20034;-80
2023/04/27 12:03:22;;;;;;;6.82;3.22;;;15.30;86.00;;;;;;4869105;29;20454;-78
2023/04/27 12:05:49;;;;;;;5.78;3.75;;;15.40;86.30;;;;;;4882705;29;20029;-77
2023/04/27 12:08:16;;;;;;;5.70;3.72;;;15.40;86.40;;;;;;4884653;29;20099;-77
2023/04/27 12:10:41;;;;;;;6.57;3.95;;;15.50;86.50;;;;;;4866141;29;20040;-77
2023/04/27 12:13:07;;;;;;;5.65;3.42;;;15.50;86.30;;;;;;4881881;29;20488;-77
2023/04/27 12:15:33;;;;;;;8.57;4.30;;;15.60;86.20;;;;;;4882255;29;20033;-77
2023/04/27 12:17:58;;;;;;;7.93;4.47;;;15.70;86.20;;;;;;4882319;29;20021;-77
2023/04/27 12:20:24;;;;;;;9.52;5.75;;;15.80;86.10;;;;;;4881836;29;20077;-76
2023/04/27 12:22:50;;;;;;;6.50;4.38;;;15.70;85.70;;;;;;4882251;29;20025;-77
2023/04/27 12:25:16;;;;;;;6.32;4.53;;;15.70;86.10;;;;;;4882251;29;20036;-77
2023/04/27 12:27:46;;;;;;;4.70;3.05;;;15.70;86.40;;;;;;4881813;29;20150;-77
2023/04/27 12:30:12;;;;;;;6.03;4.20;;;15.70;86.40;;;;;;4865693;29;20041;-76
2023/04/27 12:32:38;;;;;;;6.03;4.18;;;15.70;86.30;;;;;;4881999;29;20021;-80
2023/04/27 12:35:05;;;;;;;6.95;4.75;;;15.50;86.20;;;;;;4882029;29;20068;-77
2023/04/27 12:37:30;;;;;;;7.38;4.60;;;15.60;86.70;;;;;;4865071;29;20420;-78
2023/04/27 12:39:56;;;;;;;4.72;3.47;;;15.60;86.60;;;;;;4882148;29;20029;-77
2023/04/27 12:42:23;;;;;;;4.18;3.20;;;15.70;86.60;;;;;;4881567;29;20037;-77
2023/04/27 12:44:50;;;;;;;5.13;3.15;;;15.70;86.50;;;;;;4882011;29;20511;-77
2023/04/27 12:47:16;;;;;;;8.25;4.18;;;15.80;86.30;;;;;;4874708;29;20109;-77
2023/04/27 12:49:42;;;;;;;5.15;3.88;;;15.80;86.20;;;;;;4863410;29;20025;-77
2023/04/27 12:52:08;;;;;;;5.32;3.85;;;15.90;86.30;;;;;;4863198;29;20511;-80
2023/04/27 12:54:35;;;;;;;4.70;3.55;;;15.90;86.30;;;;;;4861776;29;20042;-87
2023/04/27 12:57:04;;;;;;;5.88;3.90;;;16.00;86.10;;;;;;4863388;29;20036;-79
2023/04/27 12:59:33;;;;;;;7.50;4.55;;;16.00;86.10;;;;;;4846435;29;20123;-79
2023/04/27 13:02:00;;;;;;;6.10;4.20;;;16.00;86.20;;;;;;4867634;29;20037;-77
2023/04/27 13:04:28;;;;;;;5.55;4.25;;;16.10;86.20;;;;;;4881562;29;20032;-80
2023/04/27 13:06:54;;;;;;;6.53;4.47;;;16.20;86.20;;;;;;4864514;29;20025;-76
2023/04/27 13:09:20;;;;;;;5.22;3.70;;;16.30;86.00;;;;;;4881772;29;20421;-79
2023/04/27 13:11:46;;;;;;;7.60;5.10;;;16.20;85.90;;;;;;4861346;29;20052;-79
2023/04/27 13:14:12;;;;;;;5.88;4.38;;;16.30;86.00;;;;;;4863157;29;20037;-79
2023/04/27 13:16:38;;;;;;;7.47;4.45;;;16.40;85.90;;;;;;4849507;29;20485;-78
2023/04/27 13:19:04;;;;;;;6.07;4.43;;;16.40;86.00;;;;;;4850384;29;20588;-79
2023/04/27 13:21:30;;;;;;;5.57;4.00;;;16.50;85.60;;;;;;4867367;29;20049;-78
2023/04/27 13:23:55;;;;;;;7.38;4.55;;;16.50;85.80;;;;;;4866800;29;20052;-79
2023/04/27 13:26:21;;;;;;;5.80;4.13;;;16.40;85.60;;;;;;4866793;29;20036;-79
2023/04/27 13:28:48;;;;;;;6.25;4.45;;;16.50;85.60;;;;;;4867325;29;20033;-79
2023/04/27 13:31:14;;;;;;;4.63;3.83;;;16.50;85.70;;;;;;4882807;29;20075;-79
2023/04/27 13:33:43;;;;;;;6.25;3.83;;;16.50;85.70;;;;;;4903948;29;20037;-79
2023/04/27 13:36:10;;;;;;;5.23;3.83;;;16.60;85.60;;;;;;4905760;29;20028;-79
2023/04/27 13:38:36;;;;;;;6.43;4.13;;;16.60;85.70;;;;;;4918274;29;20291;-79
2023/04/27 13:41:02;;;;;;;5.13;3.63;;;16.70;85.70;;;;;;4898552;29;20120;-79
2023/04/27 13:43:28;;;;;;;7.43;3.85;;;16.70;85.90;;;;;;4885133;29;20021;-79
2023/04/27 13:45:54;;;;;;;5.38;3.70;;;16.70;85.70;;;;;;4884053;29;20036;-79
2023/04/27 13:48:21;;;;;;;5.47;4.20;;;16.70;85.60;;;;;;4885096;29;20104;-79
2023/04/27 13:50:47;;;;;;;5.50;4.43;;;16.70;85.70;;;;;;4885334;29;20485;-80
2023/04/27 13:53:14;;;;;;;5.85;4.07;;;16.70;85.80;;;;;;4911549;29;20036;-79
2023/04/27 13:55:40;;;;;;;4.38;3.65;;;16.70;85.90;;;;;;4921532;29;20059;-79
2023/04/27 13:58:06;;;;;;;5.30;4.10;;;16.70;85.80;;;;;;4922449;29;20546;-79
2023/04/27 14:00:32;;;;;;;6.05;4.38;;;16.80;85.80;;;;;;4895098;29;20061;-79
2023/04/27 14:02:59;;;;;;;6.15;4.40;;;16.80;85.70;;;;;;4899186;29;20024;-79
2023/04/27 14:05:25;;;;;;;7.30;3.63;;;16.80;86.00;;;;;;4919153;29;20558;-79
2023/04/27 14:07:52;;;;;;;4.70;3.40;;;16.80;85.90;;;;;;4922425;29;20052;-79
2023/04/27 14:10:18;;;;;;;5.18;3.60;;;16.80;85.80;;;;;;4906831;29;20032;-79
2023/04/27 14:12:44;;;;;;;5.45;3.95;;;16.80;85.90;;;;;;4902363;29;20071;-79
2023/04/27 14:15:10;;;;;;;6.32;4.20;;;16.80;85.90;;;;;;4903257;29;20032;-80
2023/04/27 14:17:35;;;;;;;5.07;3.72;;;16.80;85.90;;;;;;4902591;29;20076;-80
2023/04/27 14:20:01;;;;;;;6.32;4.00;;;16.80;85.90;;;;;;4903215;29;20032;-80
2023/04/27 14:22:28;;;;;;;4.55;3.80;;;16.90;86.00;;;;;;4901486;29;20089;-80
2023/04/27 14:24:55;;;;;;;4.43;3.60;;;16.90;86.10;;;;;;4903106;29;20025;-79
2023/04/27 14:27:20;;;;;;;6.30;3.70;;;16.90;85.90;;;;;;4901472;29;20052;-79
2023/04/27 14:29:46;;;;;;;5.95;4.32;;;16.90;85.90;;;;;;4902506;29;20037;-79
2023/04/27 14:32:12;;;;;;;4.80;3.65;;;17.00;86.10;;;;;;4900871;29;20589;-80
2023/04/27 14:34:37;;;;;;;7.03;3.78;;;17.00;86.10;;;;;;4902813;29;20056;-80
2023/04/27 14:37:03;;;;;;;3.95;3.22;;;17.00;86.10;;;;;;4903084;29;20035;-80
2023/04/27 14:39:29;;;;;;;4.10;3.40;;;17.00;86.20;;;;;;4902721;29;20115;-79
2023/04/27 14:41:55;;;;;;;6.32;3.55;;;17.00;86.40;;;;;;4888100;29;20102;-80
2023/04/27 14:44:20;;;;;;;6.85;3.45;;;17.00;86.50;;;;;;4882879;29;20040;-79
2023/04/27 14:46:46;;;;;;;6.32;4.10;;;17.00;86.30;;;;;;4910784;29;20089;-80
2023/04/27 14:49:12;;;;;;;5.47;4.50;;;17.00;86.50;;;;;;4884296;29;20085;-79
2023/04/27 14:51:37;;;;;;;5.75;4.72;;;17.00;86.50;;;;;;4882713;29;20036;-79
2023/04/27 14:54:03;;;;;;;6.63;4.88;;;17.00;86.50;;;;;;4891473;29;20082;-79
2023/04/27 14:56:29;;;;;;;11.00;5.95;;;17.00;86.50;;;;;;4902712;29;20088;-79
2023/04/27 14:58:55;;;;;;;10.30;5.35;;;17.00;86.60;;;;;;4900190;29;20056;-80
2023/04/27 15:01:20;;;;;;;7.82;5.35;;;17.10;86.50;;;;;;4902439;29;20028;-79
2023/04/27 15:03:46;;;;;;;8.55;5.72;;;17.10;86.60;;;;;;4901177;29;20056;-80
2023/04/27 15:06:12;;;;;;;5.40;4.50;;;17.10;86.50;;;;;;4901421;29;20048;-79
2023/04/27 15:08:38;;;;;;;7.10;5.20;;;17.10;86.70;;;;;;4902332;29;20449;-79
2023/04/27 15:11:04;;;;;;;8.48;4.90;;;17.10;86.70;;;;;;4895217;29;20088;-79
2023/04/27 15:13:30;;;;;;;7.18;3.50;;;17.20;86.70;;;;;;4900888;29;20048;-79
2023/04/27 15:15:57;;;;;;;6.00;4.00;;;17.20;86.90;;;;;;4901018;29;20392;-80
2023/04/27 15:18:23;;;;;;;8.15;4.00;;;17.30;86.70;;;;;;4901588;29;21075;-80
2023/04/27 15:20:53;;;;;;;5.20;3.65;;;17.20;86.70;;;;;;4902172;29;20057;-80
2023/04/27 15:23:21;;;;;;;4.65;3.55;;;17.30;86.70;;;;;;4901143;29;20035;-80
2023/04/27 15:25:48;;;;;;;4.40;3.25;;;17.30;86.70;;;;;;4900753;29;20032;-80
2023/04/27 15:28:15;;;;;;;4.15;2.55;;;17.50;86.50;;;;;;4902172;29;20024;-80
2023/04/27 15:30:42;;;;;;;2.63;2.33;;;17.60;86.40;;;;;;4913068;29;20048;-80
2023/04/27 15:33:07;;;;;;;3.15;2.40;;;17.60;86.20;;;;;;4873697;29;20085;-81
2023/04/27 15:35:33;;;;;;;4.95;2.63;;;17.70;85.90;;;;;;4858744;29;20680;-81
2023/04/27 15:37:59;;;;;;;3.15;2.40;;;17.60;86.00;;;;;;4882509;29;20036;-81
2023/04/27 15:40:25;;;;;;;4.65;2.30;;;17.70;86.00;;;;;;4866426;29;20128;-80
2023/04/27 15:42:51;;;;;;;4.95;2.92;;;17.60;85.70;;;;;;4862790;29;20029;-80
2023/04/27 15:45:16;;;;;;;4.63;2.33;;;17.60;85.90;;;;;;4864362;29;20051;-80
2023/04/27 15:47:42;;;;;;;5.82;2.90;;;17.60;86.00;;;;;;4864487;29;20061;-80
2023/04/27 15:50:08;;;;;;;3.15;2.70;;;17.60;86.10;;;;;;4864727;29;20025;-80
2023/04/27 15:52:34;;;;;;;2.97;2.33;;;17.50;86.20;;;;;;4847673;29;20033;-80
2023/04/27 15:55:05;;;;;;;5.57;3.10;;;17.50;86.30;;;;;;4847734;29;20033;-81
2023/04/27 15:57:31;;;;;;;2.67;2.10;;;17.50;86.40;;;;;;4852194;29;20488;-81
2023/04/27 15:59:57;;;;;;;3.53;2.70;;;17.40;86.50;;;;;;4864128;29;20030;-81
2023/04/27 16:02:22;;;;;;;5.97;2.88;;;17.40;86.50;;;;;;4886587;29;20043;-81
2023/04/27 16:04:48;;;;;;;3.25;2.95;;;17.40;86.50;;;;;;4865770;29;20041;-81
2023/04/27 16:07:14;;;;;;;4.38;3.08;;;17.30;86.70;;;;;;4882159;29;20044;-81
2023/04/27 16:09:40;;;;;;;3.53;2.78;;;17.30;86.70;;;;;;4865709;29;20037;-80
2023/04/27 16:12:05;;;;;;;4.60;3.05;;;17.30;86.70;;;;;;4884816;29;20039;-80
2023/04/27 16:14:31;;;;;;;4.95;3.25;;;17.30;86.80;;;;;;4882056;29;20404;-80
2023/04/27 16:16:58;;;;;;;3.85;3.03;;;17.30;86.90;;;;;;4882500;29;20043;-80
2023/04/27 16:19:27;;;;;;;3.33;3.03;;;17.30;87.00;;;;;;4861831;29;20066;-80
2023/04/27 16:21:53;;;;;;;5.25;3.30;;;17.30;87.00;;;;;;4867885;29;20021;-80
2023/04/27 16:24:18;;;;;;;5.50;3.50;;;17.30;87.00;;;;;;4882396;29;20029;-81
2023/04/27 16:26:45;;;;;;;5.55;3.35;;;17.30;87.00;;;;;;4873491;29;20549;-81
2023/04/27 16:29:11;;;;;;;5.32;3.45;;;17.30;87.10;;;;;;4863824;29;20026;-81
2023/04/27 16:31:37;;;;;;;5.40;3.42;;;17.30;87.10;;;;;;4863272;29;20409;-81
2023/04/27 16:34:03;;;;;;;4.82;3.10;;;17.30;87.10;;;;;;4876891;29;20025;-81
2023/04/27 16:36:29;;;;;;;4.55;3.03;;;17.40;87.00;;;;;;4882054;29;20033;-81
2023/04/27 16:38:55;;;;;;;4.40;3.10;;;17.50;86.90;;;;;;4878586;29;20033;-81
2023/04/27 16:41:21;;;;;;;5.10;3.50;;;17.60;86.80;;;;;;4863643;29;20104;-81
2023/04/27 16:43:49;;;;;;;4.72;3.20;;;17.60;86.70;;;;;;4846866;29;20021;-81
2023/04/27 16:46:15;;;;;;;5.10;3.15;;;17.70;86.50;;;;;;4847122;29;20053;-84
2023/04/27 16:48:42;;;;;;;4.97;3.33;;;17.80;86.50;;;;;;4863527;29;20104;-87
2023/04/27 16:51:09;;;;;;;5.10;3.53;;;17.80;86.40;;;;;;4880732;29;20532;-80
2023/04/27 16:53:35;;;;;;;6.22;3.75;;;17.80;86.40;;;;;;4865417;29;20025;-77
2023/04/27 16:56:01;;;;;;;4.97;3.53;;;17.80;86.30;;;;;;4881796;29;20040;-82
2023/04/27 16:58:28;;;;;;;3.92;3.10;;;17.80;86.10;;;;;;4881419;29;20093;-82
2023/04/27 17:00:54;;;;;;;3.95;3.00;;;17.80;86.30;;;;;;4864640;29;20049;-83
2023/04/27 17:03:20;;;;;;;5.88;3.35;;;17.80;86.10;;;;;;4881064;29;20388;-86
2023/04/27 17:05:46;;;;;;;5.00;3.28;;;17.80;86.20;;;;;;4864325;29;20035;-90
2023/04/27 17:08:12;;;;;;;4.85;3.08;;;17.80;86.10;;;;;;4881690;29;20100;-78
2023/04/27 17:10:38;;;;;;;5.43;3.53;;;17.80;86.30;;;;;;4865901;29;20093;-87
2023/04/27 17:13:04;;;;;;;6.60;4.20;;;17.70;86.30;;;;;;4865877;29;20041;-84
2023/04/27 17:15:31;;;;;;;6.28;3.83;;;17.70;86.30;;;;;;4866402;29;20552;-91